ěÝzenÝ letovÚho provozu ╚eskÚ republiky
Letiste: LKNA Aktualizace: 27.10.2020 00:27:24  UTC
 METAR LKNA 27.10. 00:30 ...
METAR LKNA 270030Z VRB01KT 9999 OVC026 09/08 Q1008 RMK BLU=
 TAF LKNA 26.10. 23:00 ...
TAF LKNA 262300Z 2700/2800 30005KT 9999 OVC020      BECMG 2700/2702 3000 BR DZ OVC008      TEMPO 2700/2712 0500 FG VV002      BECMG 2704/2706 4000 RA      BECMG 2715/2717 9999 NSW BKN013=